createdAt,value
2018-08-12T00:00:30.000Z,5.40
2018-08-12T00:02:59.364Z,4.80
2018-08-12T00:05:27.784Z,5.30
2018-08-12T00:07:56.399Z,5.20
2018-08-12T00:10:25.444Z,4.97
2018-08-12T00:12:53.891Z,5.20
2018-08-12T00:15:22.836Z,5.30
2018-08-12T00:17:51.260Z,5.37
2018-08-12T00:20:21.274Z,5.40
2018-08-12T00:22:49.864Z,4.70
2018-08-12T00:25:20.647Z,5.77
2018-08-12T00:27:49.095Z,5.60
2018-08-12T00:30:18.288Z,5.10
2018-08-12T00:32:46.692Z,6.30
2018-08-12T00:35:16.319Z,6.10
2018-08-12T00:37:44.728Z,5.73
2018-08-12T00:40:14.248Z,6.07
2018-08-12T00:42:43.727Z,5.83
2018-08-12T00:45:15.127Z,6.73
2018-08-12T00:47:43.644Z,6.10
2018-08-12T00:50:12.857Z,6.03
2018-08-12T00:52:41.289Z,6.50
2018-08-12T00:55:11.749Z,6.07
2018-08-12T00:57:40.265Z,6.60
2018-08-12T01:00:14.026Z,6.33
2018-08-12T01:02:42.441Z,6.30
2018-08-12T01:05:12.823Z,6.60
2018-08-12T01:07:42.003Z,6.53
2018-08-12T01:10:11.036Z,5.80
2018-08-12T01:12:39.419Z,7.13
2018-08-12T01:15:10.138Z,6.30
2018-08-12T01:17:38.646Z,7.23
2018-08-12T01:20:08.391Z,6.60
2018-08-12T01:22:37.032Z,6.83
2018-08-12T01:25:06.148Z,6.30
2018-08-12T01:27:34.612Z,6.73
2018-08-12T01:30:03.172Z,7.03
2018-08-12T01:32:31.534Z,7.30
2018-08-12T01:34:59.850Z,6.90
2018-08-12T01:37:28.343Z,6.60
2018-08-12T01:39:56.679Z,6.70
2018-08-12T01:42:25.097Z,7.23
2018-08-12T01:44:53.479Z,7.33
2018-08-12T01:47:21.873Z,7.07
2018-08-12T01:49:50.259Z,7.60
2018-08-12T01:52:18.643Z,7.43
2018-08-12T01:54:47.113Z,7.73
2018-08-12T01:57:15.488Z,7.47
2018-08-12T01:59:43.882Z,6.87
2018-08-12T02:02:12.331Z,8.10
2018-08-12T02:04:40.688Z,6.87
2018-08-12T02:07:09.124Z,7.50
2018-08-12T02:09:37.861Z,7.67
2018-08-12T02:12:06.269Z,7.07
2018-08-12T02:14:34.722Z,6.47
2018-08-12T02:17:03.133Z,7.10
2018-08-12T02:19:31.558Z,7.50
2018-08-12T02:21:59.956Z,6.87
2018-08-12T02:24:28.367Z,7.17
2018-08-12T02:26:56.797Z,6.80
2018-08-12T02:29:25.205Z,7.10
2018-08-12T02:31:53.658Z,7.20
2018-08-12T02:34:22.022Z,7.37
2018-08-12T02:36:50.400Z,6.60
2018-08-12T02:39:18.779Z,6.90
2018-08-12T02:41:47.184Z,7.20
2018-08-12T02:44:15.648Z,6.57
2018-08-12T02:46:44.060Z,6.87
2018-08-12T02:49:12.516Z,6.33
2018-08-12T02:51:40.900Z,6.20
2018-08-12T02:54:09.422Z,5.90
2018-08-12T02:56:37.803Z,5.43
2018-08-12T02:59:06.234Z,6.03
2018-08-12T03:01:34.643Z,6.10
2018-08-12T03:04:03.156Z,5.40
2018-08-12T03:06:31.551Z,6.27
2018-08-12T03:08:59.975Z,5.30
2018-08-12T03:11:29.117Z,4.70
2018-08-12T03:13:58.352Z,5.27
2018-08-12T03:16:26.731Z,5.60
2018-08-12T03:18:55.105Z,5.30
2018-08-12T03:21:23.531Z,5.30
2018-08-12T03:23:51.940Z,5.00
2018-08-12T03:26:20.348Z,4.40
2018-08-12T03:28:48.722Z,4.70
2018-08-12T03:31:18.071Z,4.90
2018-08-12T03:33:47.669Z,4.10
2018-08-12T03:36:16.095Z,5.07
2018-08-12T03:38:44.425Z,4.60
2018-08-12T03:41:12.803Z,4.40
2018-08-12T03:43:41.135Z,4.57
2018-08-12T03:46:09.475Z,4.00
2018-08-12T03:48:37.869Z,4.00
2018-08-12T03:51:06.140Z,4.10
2018-08-12T03:53:34.530Z,5.03
2018-08-12T03:56:02.928Z,4.83
2018-08-12T03:58:31.259Z,4.90
2018-08-12T04:00:59.639Z,4.73
2018-08-12T04:03:28.000Z,4.00
2018-08-12T04:05:56.374Z,4.57
2018-08-12T04:08:24.710Z,4.73
2018-08-12T04:10:53.134Z,4.53
2018-08-12T04:13:21.581Z,4.87
2018-08-12T04:15:49.987Z,4.20
2018-08-12T04:18:18.447Z,4.10
2018-08-12T04:20:46.733Z,4.33
2018-08-12T04:23:15.146Z,4.50
2018-08-12T04:25:43.491Z,4.50
2018-08-12T04:28:11.895Z,3.97
2018-08-12T04:30:40.448Z,4.60
2018-08-12T04:33:08.839Z,4.50
2018-08-12T04:35:37.455Z,3.60
2018-08-12T04:38:05.851Z,4.50
2018-08-12T04:40:34.192Z,3.90
2018-08-12T04:43:02.587Z,4.70
2018-08-12T04:45:31.031Z,4.50
2018-08-12T04:47:59.784Z,4.17
2018-08-12T04:50:28.111Z,3.40
2018-08-12T04:52:56.553Z,3.63
2018-08-12T04:55:24.907Z,3.50
2018-08-12T04:57:53.213Z,4.33
2018-08-12T05:00:21.582Z,4.00
2018-08-12T05:02:50.043Z,3.60
2018-08-12T05:05:18.415Z,3.87
2018-08-12T05:07:46.819Z,3.70
2018-08-12T05:10:15.270Z,3.23
2018-08-12T05:12:43.687Z,3.57
2018-08-12T05:15:12.167Z,3.30
2018-08-12T05:17:40.872Z,3.13
2018-08-12T05:20:09.922Z,3.30
2018-08-12T05:22:38.676Z,3.30
2018-08-12T05:25:07.566Z,3.37
2018-08-12T05:27:36.103Z,3.33
2018-08-12T05:30:05.679Z,3.70
2018-08-12T05:32:34.068Z,3.40
2018-08-12T05:35:02.519Z,3.67
2018-08-12T05:37:30.961Z,3.03
2018-08-12T05:39:59.365Z,3.40
2018-08-12T05:42:27.869Z,3.30
2018-08-12T05:44:56.240Z,3.60
2018-08-12T05:47:24.686Z,2.63
2018-08-12T05:49:53.041Z,2.80
2018-08-12T05:52:21.407Z,2.20
2018-08-12T05:54:49.890Z,2.00
2018-08-12T05:57:18.652Z,2.03
2018-08-12T05:59:47.048Z,2.00
2018-08-12T06:02:15.415Z,2.03
2018-08-12T06:04:44.216Z,2.47
2018-08-12T06:07:12.732Z,2.20
2018-08-12T06:09:41.502Z,2.10
2018-08-12T06:12:09.987Z,1.77
2018-08-12T06:14:38.366Z,2.00
2018-08-12T06:17:06.751Z,1.67
2018-08-12T06:19:35.102Z,2.20
2018-08-12T06:22:03.648Z,1.73
2018-08-12T06:24:32.298Z,1.57
2018-08-12T06:27:00.956Z,1.30
2018-08-12T06:29:29.579Z,1.70
2018-08-12T06:31:58.346Z,1.43
2018-08-12T06:34:26.980Z,1.17
2018-08-12T06:36:55.367Z,1.07
2018-08-12T06:39:23.748Z,1.20
2018-08-12T06:41:52.039Z,1.20
2018-08-12T06:44:20.363Z,1.20
2018-08-12T06:46:48.699Z,1.33
2018-08-12T06:49:16.999Z,1.00
2018-08-12T06:51:45.392Z,1.10
2018-08-12T06:54:13.680Z,1.17
2018-08-12T06:56:42.009Z,1.30
2018-08-12T06:59:10.369Z,1.30
2018-08-12T07:01:38.745Z,1.27
2018-08-12T07:04:07.076Z,1.53
2018-08-12T07:06:35.698Z,1.10
2018-08-12T07:09:06.033Z,1.40
2018-08-12T07:11:34.410Z,1.20
2018-08-12T07:14:02.945Z,1.30
2018-08-12T07:16:31.283Z,1.40
2018-08-12T07:18:59.670Z,1.60
2018-08-12T07:21:27.950Z,1.30
2018-08-12T07:23:56.310Z,1.50
2018-08-12T07:26:24.721Z,1.47
2018-08-12T07:28:53.097Z,1.30
2018-08-12T07:31:21.463Z,1.17
2018-08-12T07:33:49.803Z,1.23
2018-08-12T07:36:18.215Z,1.10
2018-08-12T07:38:46.588Z,1.30
2018-08-12T07:41:14.911Z,1.27
2018-08-12T07:43:44.276Z,1.20
2018-08-12T07:46:12.636Z,1.20
2018-08-12T07:48:41.025Z,1.00
2018-08-12T07:51:09.366Z,1.10
2018-08-12T07:53:37.803Z,1.07
2018-08-12T07:56:06.330Z,1.00
2018-08-12T07:58:34.718Z,1.17
2018-08-12T08:01:03.117Z,1.00
2018-08-12T08:03:31.495Z,1.07
2018-08-12T08:05:59.867Z,1.40
2018-08-12T08:08:28.349Z,1.00
2018-08-12T08:10:56.739Z,1.20
2018-08-12T08:13:25.159Z,1.00
2018-08-12T08:15:53.534Z,1.03
2018-08-12T08:18:21.916Z,1.20
2018-08-12T08:20:50.339Z,1.30
2018-08-12T08:23:18.617Z,1.50
2018-08-12T08:25:47.027Z,1.20
2018-08-12T08:28:15.405Z,0.90
2018-08-12T08:30:43.794Z,1.10
2018-08-12T08:33:12.262Z,1.33
2018-08-12T08:35:40.692Z,1.00
2018-08-12T08:38:09.154Z,1.20
2018-08-12T08:40:37.472Z,1.10
2018-08-12T08:43:05.877Z,0.93
2018-08-12T08:45:34.250Z,0.73
2018-08-12T08:48:02.647Z,0.80
2018-08-12T08:50:31.013Z,0.80
2018-08-12T08:52:59.401Z,1.20
2018-08-12T08:55:27.820Z,1.10
2018-08-12T08:57:56.372Z,1.00
2018-08-12T09:00:24.753Z,0.83
2018-08-12T09:02:53.881Z,1.00
2018-08-12T09:05:22.523Z,1.10
2018-08-12T09:07:51.335Z,1.10
2018-08-12T09:10:20.184Z,0.70
2018-08-12T09:12:48.579Z,0.90
2018-08-12T09:15:18.350Z,0.80
2018-08-12T09:17:47.283Z,1.10
2018-08-12T09:20:16.843Z,1.00
2018-08-12T09:22:45.275Z,1.10
2018-08-12T09:25:14.011Z,1.27
2018-08-12T09:27:42.450Z,1.10
2018-08-12T09:30:15.702Z,1.10
2018-08-12T09:32:44.650Z,0.97
2018-08-12T09:35:13.058Z,1.20
2018-08-12T09:37:41.523Z,1.00
2018-08-12T09:40:12.107Z,0.83
2018-08-12T09:42:40.915Z,0.70
2018-08-12T09:45:11.110Z,0.73
2018-08-12T09:47:39.847Z,0.80
2018-08-12T09:50:09.427Z,1.20
2018-08-12T09:52:38.327Z,1.23
2018-08-12T09:55:07.191Z,0.77
2018-08-12T09:57:35.774Z,0.73
2018-08-12T10:00:05.994Z,0.83
2018-08-12T10:02:34.336Z,0.77
2018-08-12T10:05:02.709Z,0.90
2018-08-12T10:07:31.178Z,0.77
2018-08-12T10:09:59.743Z,1.00
2018-08-12T10:12:28.139Z,0.80
2018-08-12T10:14:56.608Z,1.00
2018-08-12T10:17:25.088Z,0.90
2018-08-12T10:19:53.484Z,0.90
2018-08-12T10:22:21.842Z,1.17
2018-08-12T10:24:50.251Z,1.03
2018-08-12T10:27:18.636Z,0.90
2018-08-12T10:29:46.976Z,1.00
2018-08-12T10:32:15.275Z,0.70
2018-08-12T10:34:43.703Z,0.90
2018-08-12T10:37:12.123Z,1.10
2018-08-12T10:39:40.547Z,0.80
2018-08-12T10:42:08.947Z,1.03
2018-08-12T10:44:37.329Z,0.70
2018-08-12T10:47:05.783Z,1.07
2018-08-12T10:49:34.184Z,1.00
2018-08-12T10:52:02.611Z,1.10
2018-08-12T10:54:31.097Z,0.80
2018-08-12T10:56:59.682Z,1.00
2018-08-12T10:59:28.516Z,0.87
2018-08-12T11:01:56.948Z,0.90
2018-08-12T11:04:26.233Z,0.80
2018-08-12T11:06:54.639Z,0.80
2018-08-12T11:09:23.062Z,0.93
2018-08-12T11:11:51.519Z,0.87
2018-08-12T11:14:19.907Z,0.90
2018-08-12T11:16:48.323Z,1.07
2018-08-12T11:19:16.724Z,1.00
2018-08-12T11:21:45.155Z,0.80
2018-08-12T11:24:13.607Z,0.90
2018-08-12T11:26:42.019Z,0.70
2018-08-12T11:29:10.459Z,1.03
2018-08-12T11:31:38.983Z,1.13
2018-08-12T11:34:07.948Z,1.10
2018-08-12T11:36:36.346Z,1.10
2018-08-12T11:39:07.727Z,1.10
2018-08-12T11:41:36.217Z,0.70
2018-08-12T11:44:04.678Z,1.00
2018-08-12T11:46:33.083Z,1.07
2018-08-12T11:49:01.718Z,1.00
2018-08-12T11:51:30.322Z,1.13
2018-08-12T11:53:58.695Z,1.17
2018-08-12T11:56:27.267Z,1.20
2018-08-12T11:58:55.661Z,1.00
2018-08-12T12:01:24.050Z,0.80
2018-08-12T12:03:52.444Z,1.10
2018-08-12T12:06:20.897Z,0.93
2018-08-12T12:08:49.307Z,0.80
2018-08-12T12:11:17.663Z,1.03
2018-08-12T12:13:46.076Z,0.90
2018-08-12T12:16:14.502Z,0.70
2018-08-12T12:18:42.887Z,0.80
2018-08-12T12:21:11.345Z,0.90
2018-08-12T12:23:39.773Z,0.60
2018-08-12T12:26:08.276Z,0.90
2018-08-12T12:28:36.586Z,0.93
2018-08-12T12:31:04.979Z,0.80
2018-08-12T12:33:33.412Z,0.90
2018-08-12T12:36:01.801Z,0.80
2018-08-12T12:38:30.197Z,1.00
2018-08-12T12:40:58.581Z,1.10
2018-08-12T12:43:27.032Z,1.00
2018-08-12T12:45:55.410Z,1.10
2018-08-12T12:48:23.804Z,0.90
2018-08-12T12:50:52.227Z,0.80
2018-08-12T12:53:20.623Z,0.90
2018-08-12T12:55:51.950Z,0.87
2018-08-12T12:58:20.339Z,0.87
2018-08-12T13:00:48.699Z,0.90
2018-08-12T13:03:17.072Z,0.70
2018-08-12T13:05:45.448Z,1.20
2018-08-12T13:08:13.951Z,0.90
2018-08-12T13:10:42.265Z,0.90
2018-08-12T13:13:10.638Z,0.70
2018-08-12T13:15:39.025Z,1.00
2018-08-12T13:18:07.442Z,1.10
2018-08-12T13:20:35.876Z,0.90
2018-08-12T13:23:04.267Z,1.10
2018-08-12T13:25:32.665Z,1.20
2018-08-12T13:28:02.120Z,1.20
2018-08-12T13:30:30.500Z,1.20
2018-08-12T13:32:58.928Z,1.00
2018-08-12T13:35:27.287Z,1.00
2018-08-12T13:37:55.705Z,0.90
2018-08-12T13:40:24.062Z,1.10
2018-08-12T13:42:52.534Z,0.93
2018-08-12T13:45:20.916Z,1.03
2018-08-12T13:47:49.292Z,1.10
2018-08-12T13:50:21.446Z,1.10
2018-08-12T13:52:50.418Z,0.90
2018-08-12T13:55:19.530Z,1.00
2018-08-12T13:57:48.676Z,0.80
2018-08-12T14:00:18.651Z,1.20
2018-08-12T14:02:47.047Z,0.97
2018-08-12T14:05:17.274Z,1.20
2018-08-12T14:07:46.167Z,1.10
2018-08-12T14:10:14.673Z,1.07
2018-08-12T14:12:43.082Z,1.03
2018-08-12T14:15:13.630Z,1.00
2018-08-12T14:17:42.841Z,0.87
2018-08-12T14:20:12.362Z,0.80
2018-08-12T14:22:40.960Z,0.93
2018-08-12T14:25:09.722Z,0.70
2018-08-12T14:27:38.366Z,1.27
2018-08-12T14:30:09.761Z,1.17
2018-08-12T14:32:38.156Z,1.00
2018-08-12T14:35:07.023Z,1.40
2018-08-12T14:37:35.501Z,1.00
2018-08-12T14:40:03.951Z,1.23
2018-08-12T14:42:32.426Z,1.40
2018-08-12T14:45:00.882Z,1.00
2018-08-12T14:47:29.308Z,1.10
2018-08-12T14:49:57.729Z,1.03
2018-08-12T14:52:26.155Z,1.20
2018-08-12T14:54:54.519Z,1.27
2018-08-12T14:57:23.099Z,1.07
2018-08-12T14:59:51.504Z,1.30
2018-08-12T15:02:19.970Z,1.20
2018-08-12T15:04:48.382Z,1.10
2018-08-12T15:07:16.811Z,1.40
2018-08-12T15:09:45.105Z,1.20
2018-08-12T15:12:13.550Z,1.40
2018-08-12T15:14:41.930Z,1.50
2018-08-12T15:17:10.911Z,1.10
2018-08-12T15:19:39.279Z,1.10
2018-08-12T15:22:07.642Z,1.07
2018-08-12T15:24:36.102Z,1.20
2018-08-12T15:27:04.553Z,1.00
2018-08-12T15:29:33.156Z,1.00
2018-08-12T15:32:01.716Z,1.20
2018-08-12T15:34:30.164Z,1.23
2018-08-12T15:36:58.699Z,1.30
2018-08-12T15:39:27.094Z,1.50
2018-08-12T15:41:55.555Z,1.20
2018-08-12T15:44:24.003Z,1.30
2018-08-12T15:46:52.835Z,1.30
2018-08-12T15:49:21.217Z,1.30
2018-08-12T15:51:49.658Z,1.20
2018-08-12T15:54:18.067Z,1.10
2018-08-12T15:56:46.546Z,1.10
2018-08-12T15:59:14.890Z,1.00
2018-08-12T16:01:43.331Z,1.30
2018-08-12T16:04:11.758Z,1.10
2018-08-12T16:06:40.169Z,1.20
2018-08-12T16:09:10.409Z,0.77
2018-08-12T16:11:38.763Z,1.40
2018-08-12T16:14:07.104Z,1.07
2018-08-12T16:16:36.066Z,1.20
2018-08-12T16:19:04.539Z,1.00
2018-08-12T16:21:32.931Z,1.10
2018-08-12T16:24:01.451Z,1.30
2018-08-12T16:26:29.783Z,1.17
2018-08-12T16:28:58.199Z,1.53
2018-08-12T16:31:27.725Z,1.10
2018-08-12T16:33:56.108Z,1.07
2018-08-12T16:36:24.571Z,1.33
2018-08-12T16:38:52.967Z,0.93
2018-08-12T16:41:21.347Z,1.10
2018-08-12T16:43:49.834Z,2.37
2018-08-12T16:46:18.367Z,1.10
2018-08-12T16:48:46.774Z,1.40
2018-08-12T16:51:15.213Z,1.30
2018-08-12T16:53:43.637Z,1.00
2018-08-12T16:56:12.177Z,1.00
2018-08-12T16:58:41.522Z,1.00
2018-08-12T17:01:09.968Z,1.47
2018-08-12T17:03:38.358Z,1.33
2018-08-12T17:06:06.793Z,1.33
2018-08-12T17:08:35.250Z,1.10
2018-08-12T17:11:03.622Z,1.80
2018-08-12T17:13:32.032Z,1.30
2018-08-12T17:16:00.395Z,1.23
2018-08-12T17:18:28.852Z,1.10
2018-08-12T17:20:57.273Z,1.00
2018-08-12T17:23:25.648Z,1.40
2018-08-12T17:25:54.125Z,1.13
2018-08-12T17:28:22.354Z,1.40
2018-08-12T17:30:50.759Z,1.33
2018-08-12T17:33:19.218Z,1.17
2018-08-12T17:35:47.616Z,1.40
2018-08-12T17:38:16.004Z,1.30
2018-08-12T17:40:44.374Z,1.30
2018-08-12T17:43:14.005Z,1.17
2018-08-12T17:45:42.398Z,1.30
2018-08-12T17:48:10.837Z,1.50
2018-08-12T17:50:39.564Z,1.13
2018-08-12T17:53:07.952Z,1.40
2018-08-12T17:55:36.337Z,1.40
2018-08-12T17:58:04.730Z,1.10
2018-08-12T18:00:33.164Z,1.80
2018-08-12T18:03:01.655Z,1.20
2018-08-12T18:05:30.005Z,1.40
2018-08-12T18:07:58.370Z,1.30
2018-08-12T18:10:27.686Z,1.50
2018-08-12T18:12:56.096Z,1.43
2018-08-12T18:15:24.516Z,1.20
2018-08-12T18:17:52.921Z,1.40
2018-08-12T18:20:21.283Z,1.60
2018-08-12T18:22:49.819Z,1.80
2018-08-12T18:25:18.252Z,1.33
2018-08-12T18:27:53.194Z,1.73
2018-08-12T18:30:21.626Z,1.43
2018-08-12T18:32:50.048Z,1.80
2018-08-12T18:35:18.461Z,1.27
2018-08-12T18:37:46.941Z,1.40
2018-08-12T18:40:15.354Z,1.30
2018-08-12T18:42:43.746Z,1.30
2018-08-12T18:45:12.036Z,1.83
2018-08-12T18:47:42.707Z,1.57
2018-08-12T18:50:11.575Z,1.40
2018-08-12T18:52:40.383Z,1.80
2018-08-12T18:55:10.555Z,1.50
2018-08-12T18:57:38.919Z,1.53
2018-08-12T19:00:09.137Z,1.80
2018-08-12T19:02:37.465Z,1.80
2018-08-12T19:05:06.303Z,1.80
2018-08-12T19:07:34.735Z,1.73
2018-08-12T19:10:03.153Z,1.50
2018-08-12T19:12:31.577Z,1.40
2018-08-12T19:14:59.891Z,1.40
2018-08-12T19:17:28.294Z,1.67
2018-08-12T19:19:56.749Z,1.60
2018-08-12T19:22:25.212Z,1.70
2018-08-12T19:24:53.640Z,1.57
2018-08-12T19:27:23.011Z,1.90
2018-08-12T19:29:51.444Z,1.90
2018-08-12T19:32:19.896Z,2.00
2018-08-12T19:34:48.330Z,1.70
2018-08-12T19:37:16.804Z,1.73
2018-08-12T19:39:45.412Z,1.70
2018-08-12T19:42:13.820Z,1.80
2018-08-12T19:44:42.258Z,2.10
2018-08-12T19:47:10.747Z,1.63
2018-08-12T19:49:39.204Z,1.70
2018-08-12T19:52:07.633Z,2.20
2018-08-12T19:54:36.067Z,1.83
2018-08-12T19:57:04.458Z,2.00
2018-08-12T19:59:32.874Z,1.90
2018-08-12T20:02:01.307Z,2.10
2018-08-12T20:04:29.678Z,2.00
2018-08-12T20:06:58.077Z,1.70
2018-08-12T20:09:26.536Z,1.87
2018-08-12T20:11:55.042Z,1.60
2018-08-12T20:14:23.480Z,1.70
2018-08-12T20:16:51.911Z,2.07
2018-08-12T20:19:20.295Z,2.20
2018-08-12T20:21:48.692Z,1.90
2018-08-12T20:24:17.164Z,1.80
2018-08-12T20:26:45.632Z,1.60
2018-08-12T20:29:13.916Z,1.90
2018-08-12T20:31:42.457Z,2.10
2018-08-12T20:34:10.976Z,1.70
2018-08-12T20:36:39.396Z,1.60
2018-08-12T20:39:09.988Z,2.00
2018-08-12T20:41:38.423Z,1.40
2018-08-12T20:44:06.853Z,1.90
2018-08-12T20:46:35.427Z,1.97
2018-08-12T20:49:03.902Z,1.67
2018-08-12T20:51:32.392Z,1.83
2018-08-12T20:54:00.884Z,1.80
2018-08-12T20:56:29.300Z,1.70
2018-08-12T20:58:57.745Z,2.07
2018-08-12T21:01:26.343Z,2.00
2018-08-12T21:03:54.734Z,1.80
2018-08-12T21:06:23.172Z,2.10
2018-08-12T21:08:51.539Z,1.70
2018-08-12T21:11:19.915Z,1.80
2018-08-12T21:13:48.308Z,1.67
2018-08-12T21:16:16.794Z,2.00
2018-08-12T21:18:45.214Z,2.10
2018-08-12T21:21:13.643Z,1.70
2018-08-12T21:23:42.085Z,1.83
2018-08-12T21:26:10.613Z,1.73
2018-08-12T21:28:38.988Z,2.17
2018-08-12T21:31:07.460Z,2.13
2018-08-12T21:33:35.928Z,2.00
2018-08-12T21:36:04.359Z,2.00
2018-08-12T21:38:32.750Z,1.30
2018-08-12T21:41:01.763Z,1.80
2018-08-12T21:43:30.121Z,1.67
2018-08-12T21:45:58.489Z,1.63
2018-08-12T21:48:26.947Z,2.13
2018-08-12T21:50:55.262Z,1.70
2018-08-12T21:53:23.547Z,2.57
2018-08-12T21:55:51.853Z,2.00
2018-08-12T21:58:20.247Z,2.23
2018-08-12T22:00:55.157Z,2.00
2018-08-12T22:03:24.046Z,1.77
2018-08-12T22:05:52.702Z,1.80
2018-08-12T22:08:21.065Z,1.70
2018-08-12T22:10:50.259Z,1.90
2018-08-12T22:13:18.935Z,2.20
2018-08-12T22:15:47.394Z,2.50
2018-08-12T22:18:15.725Z,1.60
2018-08-12T22:20:44.090Z,1.80
2018-08-12T22:23:12.495Z,1.63
2018-08-12T22:25:40.847Z,2.07
2018-08-12T22:28:09.156Z,2.00
2018-08-12T22:30:37.570Z,2.00
2018-08-12T22:33:06.008Z,1.70
2018-08-12T22:35:34.397Z,1.80
2018-08-12T22:38:02.818Z,2.00
2018-08-12T22:40:31.218Z,1.97
2018-08-12T22:42:59.607Z,2.30
2018-08-12T22:45:28.131Z,2.13
2018-08-12T22:47:56.511Z,1.97
2018-08-12T22:50:24.945Z,1.87
2018-08-12T22:52:53.471Z,2.00
2018-08-12T22:55:21.826Z,2.10
2018-08-12T22:57:50.154Z,1.67
2018-08-12T23:00:19.739Z,1.80
2018-08-12T23:02:48.559Z,2.27
2018-08-12T23:05:16.930Z,2.03
2018-08-12T23:07:46.881Z,2.70
2018-08-12T23:10:15.352Z,2.40
2018-08-12T23:12:43.651Z,2.07
2018-08-12T23:15:23.185Z,2.20
2018-08-12T23:17:51.518Z,2.10
2018-08-12T23:20:19.886Z,2.37
2018-08-12T23:22:48.151Z,2.20
2018-08-12T23:25:16.399Z,1.83
2018-08-12T23:27:44.649Z,2.00
2018-08-12T23:30:12.930Z,1.73
2018-08-12T23:32:41.202Z,2.00
2018-08-12T23:35:09.640Z,2.13
2018-08-12T23:37:38.099Z,2.07
2018-08-12T23:40:07.091Z,2.17
2018-08-12T23:42:35.579Z,2.10
2018-08-12T23:45:03.985Z,2.00
2018-08-12T23:47:32.371Z,2.10
2018-08-12T23:50:00.725Z,2.00
2018-08-12T23:52:29.122Z,2.00
2018-08-12T23:54:57.530Z,2.40
2018-08-12T23:57:25.794Z,2.30
2018-08-12T23:59:54.144Z,2.00
